Arbúcies





Hora UTC 16:00
Temperatura 8.2 ºC
Humedad 71.7 %
Presión 1033.0 hPa
Pluja 0.1 mm
Velocidad viento 4.8 km/h
Dirección viento SW
Radiación solar 24.1 W/m²

Datos diarios 2022-01-25



Hora UTC (invierno +1h; verano +2h)
Temperatura (ºC) Humedad (%) Presión (hPa) Velocidad viento (km/h) Precipitación (mm) Radiación solar (W/m²)
Hora UTC Aire Humedad Presión Vel. Dir. Vel. Max Dir. Intent. máx 5 min. Rad. Sol.
00:05 -0.5 93.1 1034.0 7.6 SW 12.0 SW 0.0 0.0
00:10 -0.8 93.1 1034.0 6.1 SSW 9.2 SSW 0.0 0.0
00:15 -0.5 94.0 1034.0 7.1 SSW 9.9 SSW 0.0 0.0
00:20 -0.4 93.9 1034.0 7.7 SSW 9.9 SSW 0.0 0.0
00:25 -0.4 94.0 1033.0 7.6 SSW 11.6 SSW 0.0 0.0
00:30 -0.1 94.4 1034.0 9.0 SSW 14.1 SSW 0.0 0.0
00:35 -0.4 92.9 1034.0 4.1 SSW 9.9 SSW 0.0 0.0
00:40 -0.7 93.6 1034.0 6.4 SSW 11.3 SSW 0.0 0.0
00:45 0.2 94.6 1034.0 8.8 SSW 11.3 SSW 0.0 0.0
00:50 -0.3 92.8 1033.0 9.8 SSW 12.3 SW 0.0 0.0
00:55 -0.4 93.6 1034.0 9.8 SSW 12.3 SW 0.0 0.0
01:00 -0.6 93.3 1034.0 5.5 WSW 12.0 S 0.0 0.0
01:05 -0.9 93.6 1034.0 8.2 SW 12.0 SSW 0.0 0.0
01:10 -0.4 94.7 1034.0 10.5 SSW 12.3 SW 0.0 0.0
01:15 -0.6 94.1 1034.0 9.3 SSW 11.6 SSW 0.0 0.0
01:20 -0.5 94.3 1034.0 8.5 SSW 10.6 SW 0.0 0.0
01:25 -0.4 94.6 1034.0 8.6 SSW 13.4 SW 0.0 0.0
01:30 -0.2 94.4 1034.0 9.3 SSW 11.6 SSW 0.0 0.0
01:35 -0.3 94.0 1034.0 9.1 SSW 10.6 SSW 0.0 0.0
01:40 -0.4 94.0 1035.0 8.4 SSW 10.9 SSW 0.0 0.0
01:45 -0.5 94.0 1034.0 9.5 SSW 11.6 SSW 0.0 0.0
01:50 -0.5 94.4 1034.0 9.7 SSW 13.1 SSW 0.0 0.0
01:55 -0.5 94.2 1034.0 8.6 SSW 10.9 SSW 0.0 0.0
02:00 -0.5 94.3 1034.0 8.4 SSW 10.2 SSW 0.0 0.0
02:05 -0.4 94.5 1034.0 8.7 SSW 10.6 SSW 0.0 0.0
02:10 -0.3 94.5 1035.0 9.2 SSW 13.4 SW 0.0 0.0
02:15 -0.2 94.4 1034.0 10.0 SSW 15.2 WSW 0.0 0.0
02:20 -0.1 94.0 1034.0 8.2 SSW 10.9 SSW 0.0 0.0
02:25 -0.6 93.0 1034.0 7.3 SW 10.2 SSW 0.0 0.0
02:30 -0.6 94.2 1034.0 8.8 SSW 10.9 SSW 0.0 0.0
02:35 -0.3 94.4 1034.0 8.0 SSW 10.6 SSW 0.0 0.0
02:40 -0.4 94.1 1034.0 8.1 SSW 10.9 SSW 0.0 0.0
02:45 -0.7 93.7 1034.0 8.5 SSW 10.6 SSW 0.0 0.0
02:50 -0.7 94.2 1034.0 8.7 SSW 12.7 SW 0.0 0.0
02:55 -0.7 94.1 1034.0 7.5 SW 10.6 SSW 0.0 0.0
03:00 -1.1 93.6 1034.0 5.3 SW 8.1 SSW 0.0 0.0
03:05 -1.0 94.6 1034.0 9.2 SSW 13.1 SSW 0.0 0.0
03:10 -0.3 95.2 1034.0 11.1 SSW 14.8 SSW 0.0 0.0
03:15 -0.2 94.6 1034.0 11.8 SSW 14.8 SSW 0.0 0.0
03:20 0.3 94.1 1033.0 11.5 SSW 15.2 SSW 0.0 0.0
03:25 0.2 92.6 1034.0 10.5 SSW 13.1 SSW 0.0 0.0
03:30 -0.1 92.6 1034.0 11.0 SSW 13.1 SW 0.0 0.0
03:35 -0.1 93.0 1034.0 10.6 SSW 13.1 SW 0.0 0.0
03:40 -0.3 93.0 1034.0 10.4 SSW 13.1 SSW 0.0 0.0
03:45 -0.6 93.0 1034.0 9.9 SSW 12.7 SSW 0.0 0.0
03:50 -0.6 93.6 1034.0 10.4 SSW 12.3 SSW 0.0 0.0
03:55 -0.6 93.9 1034.0 10.8 SSW 14.1 SSW 0.0 0.0
04:00 -0.3 94.2 1034.0 10.7 SSW 14.8 SSW 0.0 0.0
04:05 0.0 94.0 1034.0 10.5 SSW 13.4 SSW 0.0 0.0
04:10 0.0 93.0 1035.0 10.2 SSW 12.7 SSW 0.0 0.0
04:15 -0.5 92.4 1034.0 7.3 SW 10.9 SW 0.0 0.0
04:20 -0.8 92.8 1034.0 8.0 SW 12.7 SW 0.0 0.0
04:25 -1.0 93.2 1034.0 8.3 SSW 12.7 SSW 0.0 0.0
04:30 -0.5 94.3 1034.0 8.5 SSW 12.0 SSW 0.0 0.0
04:35 -1.0 92.9 1034.0 6.9 SW 12.0 SW 0.0 0.0
04:40 -0.5 94.4 1035.0 10.4 SSW 14.5 SW 0.0 0.0
04:45 -0.4 93.6 1034.0 10.8 SSW 13.1 SSW 0.0 0.0
04:50 -0.4 93.9 1034.0 12.0 SSW 16.6 WSW 0.0 0.0
04:55 -0.2 93.2 1034.0 11.3 SSW 15.5 SW 0.0 0.0
05:00 -0.2 93.2 1034.0 12.6 SSW 16.2 SW 0.0 0.0
05:05 -0.1 92.2 1034.0 10.8 SW 15.2 SSW 0.0 0.0
05:10 -0.4 92.2 1034.0 10.5 SSW 13.1 SSW 0.0 0.0
05:15 -0.6 92.5 1034.0 9.1 SSW 12.0 SSW 0.0 0.0
05:20 -0.8 93.0 1034.0 9.9 SSW 12.7 SSW 0.0 0.0
05:25 -0.6 93.7 1034.0 8.6 SSW 11.3 SSW 0.0 0.0
05:30 -0.7 93.2 1034.0 9.0 SSW 11.3 SSW 0.0 0.0
05:35 -0.6 93.7 1034.0 9.7 SSW 13.8 SW 0.0 0.0
05:40 -0.3 93.6 1034.0 10.0 SSW 14.1 SW 0.0 0.0
05:45 -0.3 92.6 1034.0 10.6 SSW 13.4 SSW 0.0 0.0
05:50 -0.3 92.8 1034.0 10.3 SSW 13.1 SSW 0.0 0.0
05:55 -0.1 92.3 1034.0 10.1 SSW 13.4 SW 0.0 0.0
06:00 -0.1 91.6 1034.0 9.9 SSW 14.1 SSW 0.0 0.0
06:05 -0.1 91.3 1034.0 9.2 SSW 11.3 SSW 0.0 0.0
06:10 -0.2 91.3 1034.0 10.0 SSW 13.4 SW 0.0 0.0
06:15 -0.2 91.0 1033.0 10.0 SSW 14.1 SSW 0.0 0.0
06:20 -0.3 91.0 1034.0 10.4 SSW 13.4 SW 0.0 0.0
06:25 -0.4 91.1 1034.0 10.6 SSW 13.8 SSW 0.0 0.0
06:30 -0.3 91.5 1034.0 10.5 SSW 14.1 SW 0.0 0.0
06:35 -0.5 91.0 1034.0 10.3 SSW 13.4 SSW 0.0 0.0
06:40 -0.9 91.0 1034.0 8.9 SW 13.1 SSW 0.0 0.0
06:45 -0.7 92.4 1034.0 11.4 SSW 15.9 SSW 0.0 0.0
06:50 -0.4 92.0 1034.0 11.9 SSW 15.2 SSW 0.0 0.0
06:55 -0.4 91.2 1034.0 10.6 SSW 13.4 SW 0.0 0.0
07:00 -0.6 91.3 1034.0 9.8 SSW 13.1 SSW 0.0 0.0
07:05 -0.8 91.2 1034.0 9.0 SSW 11.3 SSW 0.0 0.0
07:10 -0.8 91.9 1034.0 8.3 SSW 10.6 SSW 0.0 1.1
07:15 -1.0 91.9 1034.0 8.3 SSW 11.6 SSW 0.0 2.9
07:20 -1.0 92.4 1034.0 9.1 SSW 11.6 SW 0.0 5.3
07:25 -0.8 92.8 1034.0 10.1 SSW 14.1 SSW 0.0 7.9
07:30 -0.9 91.3 1034.0 7.9 SSW 14.1 SW 0.0 9.6
07:35 -1.0 92.3 1034.0 8.6 SSW 13.1 SW 0.0 12.5
07:40 -0.8 92.4 1035.0 9.1 SSW 11.6 SSW 0.0 15.4
07:45 -0.6 92.2 1034.0 8.2 SSW 12.3 SSW 0.0 18.0
07:50 -0.5 92.2 1034.0 10.1 SSW 13.4 SSW 0.0 20.3
07:55 -0.4 91.3 1034.0 8.4 SSW 13.4 SW 0.0 22.1
08:00 -0.2 91.0 1034.0 8.5 SSW 14.5 SSW 0.0 24.2
08:05 0.2 89.3 1035.0 8.9 SSW 15.2 SSW 0.0 26.0
08:10 0.0 87.3 1034.0 6.9 SSW 12.3 SW 0.0 27.3
08:15 -0.4 89.0 1034.0 7.3 SSW 11.3 SSW 0.0 29.2
08:20 0.1 90.4 1034.0 8.9 SSW 12.7 SSW 0.0 31.6
08:25 0.5 87.9 1034.0 8.7 SSW 11.3 SW 0.0 33.0
08:30 0.5 87.7 1034.0 7.7 SSW 10.6 SSW 0.0 34.6
08:35 0.6 87.4 1035.0 7.6 SSW 9.9 SSW 0.0 36.3
08:40 0.5 87.1 1034.0 6.0 SSW 9.9 SSW 0.0 37.5
08:45 0.4 87.6 1034.0 3.6 SW 5.6 SW 0.0 38.7
08:50 0.5 89.1 1034.0 5.5 SSW 8.1 SW 0.0 41.0
08:55 1.2 89.5 1034.0 6.4 SSW 9.2 SW 0.0 42.7
09:00 1.7 87.2 1034.0 6.6 SSW 9.2 SSW 0.0 100.1
09:05 2.3 84.0 1035.0 5.4 SSW 8.8 SW 0.0 114.9
09:10 2.6 83.4 1034.0 4.2 SSW 5.6 SSW 0.1 128.7
09:15 3.2 82.8 1034.0 1.7 S 4.9 SSW 0.0 107.9
09:20 3.6 81.5 1035.0 1.6 SSW 2.8 SSW 0.0 144.1
09:25 3.6 80.3 1034.0 3.5 SSW 5.3 SSW 0.0 134.0
09:30 4.0 80.5 1035.0 2.9 SSW 5.3 SSW 0.0 211.5
09:35 4.2 79.2 1035.0 2.2 SSW 3.2 SW 0.0 279.5
09:40 4.6 79.1 1035.0 1.9 SSW 3.2 SSW 0.0 326.9
09:45 5.3 75.1 1035.0 2.4 SSW 3.2 SSW 0.0 337.7
09:50 6.0 70.0 1035.0 0.8 SSE 2.1 SSE 0.0 346.8
09:55 6.9 67.2 1035.0 0.0 E 0.4 SE 0.0 355.7
10:00 7.4 65.1 1035.0 0.0 SSW 0.4 NE 0.0 366.5
10:05 7.5 64.6 1035.0 0.1 ESE 1.8 ESE 0.0 376.5
10:10 7.7 64.9 1035.0 0.3 SSE 1.8 S 0.0 384.2
10:15 7.8 64.7 1035.0 1.3 SE 2.1 SSE 0.0 390.9
10:20 8.1 64.0 1035.0 0.2 E 2.1 E 0.0 398.7
10:25 8.4 63.1 1035.0 0.6 E 2.8 ENE 0.0 405.6
10:30 8.8 61.8 1035.0 0.8 E 3.9 ENE 0.0 410.9
10:35 9.3 60.8 1035.0 1.7 E 4.2 E 0.0 417.0
10:40 9.4 60.5 1035.0 1.2 E 3.2 E 0.0 424.4
10:45 9.7 60.1 1034.0 1.4 ENE 3.9 ESE 0.0 433.6
10:50 9.9 59.0 1034.0 2.1 ENE 4.9 E 0.0 441.3
10:55 10.0 58.4 1034.0 2.2 ENE 5.3 ENE 0.0 447.3
11:00 10.2 57.8 1034.0 1.5 E 3.9 E 0.0 451.7
11:05 10.3 57.6 1035.0 1.1 E 2.8 E 0.0 456.6
11:10 10.4 57.1 1034.0 1.6 ESE 5.3 E 0.0 462.9
11:15 10.3 58.3 1034.0 2.4 ENE 8.1 ENE 0.0 466.8
11:20 10.3 59.4 1034.0 3.1 E 7.8 ENE 0.0 468.9
11:25 10.4 60.0 1034.0 3.6 ENE 6.4 ENE 0.0 473.3
11:30 10.7 60.4 1034.0 2.7 NE 6.0 ENE 0.0 475.0
11:35 11.0 58.3 1034.0 4.1 ENE 9.2 ENE 0.0 476.2
11:40 10.9 56.7 1034.0 7.1 ENE 11.3 ENE 0.0 480.1
11:45 10.9 56.7 1034.0 6.9 ENE 12.7 ENE 0.0 480.7
11:50 11.1 56.1 1034.0 6.3 ENE 13.4 NE 0.0 482.7
11:55 11.3 55.8 1034.0 8.0 NE 12.3 ENE 0.0 482.2
12:00 11.4 56.2 1034.0 8.1 ENE 12.7 ENE 0.0 482.2
12:05 11.4 56.9 1034.0 9.5 NE 15.9 NE 0.0 483.4
12:10 11.5 57.2 1034.0 10.7 NE 18.0 NE 0.0 483.4
12:15 11.4 57.5 1033.0 9.5 ENE 14.8 ENE 0.0 481.8
12:20 11.5 57.3 1034.0 10.9 ENE 16.2 NE 0.0 479.5
12:25 11.5 57.4 1034.0 9.8 NE 16.2 NE 0.0 475.1
12:30 11.6 56.8 1034.0 9.9 ENE 15.5 ENE 0.0 472.3
12:35 11.4 57.0 1034.0 10.0 ENE 16.2 ENE 0.0 470.7
12:40 11.6 56.7 1033.0 8.2 ENE 14.5 ENE 0.0 464.6
12:45 11.5 56.5 1033.0 8.2 ENE 13.1 E 0.0 461.4
12:50 11.7 56.7 1033.0 6.4 ENE 13.4 NE 0.0 455.4
12:55 12.0 56.2 1033.0 9.0 NE 13.8 ENE 0.0 451.7
13:00 11.9 56.2 1033.0 8.8 NE 13.4 NE 0.0 447.6
13:05 12.2 56.3 1034.0 7.6 NE 14.1 NE 0.0 444.2
13:10 12.2 55.9 1033.0 8.1 NE 12.7 ENE 0.0 439.0
13:15 12.1 56.2 1033.0 8.6 NE 13.4 NE 0.0 432.3
13:20 11.9 57.0 1033.0 7.6 NE 13.4 NE 0.0 426.9
13:25 12.0 56.7 1033.0 7.7 ENE 12.3 ENE 0.0 420.7
13:30 11.9 57.2 1033.0 7.8 ENE 15.5 ENE 0.0 412.6
13:35 11.8 57.5 1033.0 7.1 ENE 12.7 E 0.0 405.1
13:40 12.1 57.5 1033.0 8.7 ENE 13.8 ENE 0.0 397.9
13:45 12.2 56.9 1033.0 9.6 NE 14.8 NE 0.0 391.2
13:50 12.3 56.9 1033.0 7.9 NE 13.8 ENE 0.0 380.5
13:55 12.3 56.8 1033.0 8.4 ENE 13.8 ENE 0.0 371.3
14:00 12.3 57.0 1033.0 7.3 NE 12.7 NE 0.0 362.6
14:05 12.3 56.8 1033.0 9.0 ENE 15.2 NE 0.0 353.1
14:10 12.3 57.0 1033.0 8.3 NE 16.6 NE 0.0 342.1
14:15 12.3 56.8 1033.0 7.0 NE 15.5 NE 0.0 332.4
14:20 12.4 56.6 1033.0 7.3 NE 13.1 E 0.0 297.1
14:25 12.1 56.9 1033.0 7.8 ENE 12.7 ENE 0.0 310.1
14:30 12.0 57.5 1033.0 7.4 ENE 12.0 ENE 0.0 298.9
14:35 12.0 57.6 1033.0 5.5 ENE 13.1 ENE 0.0 287.6
14:40 12.1 57.6 1033.0 5.0 ENE 11.6 ENE 0.0 276.0
14:45 11.9 58.0 1033.0 5.1 ENE 8.5 E 0.0 263.2
14:50 11.8 59.0 1033.0 7.1 ENE 12.0 ENE 0.0 253.7
14:55 11.7 60.2 1033.0 3.9 ENE 8.5 NE 0.0 241.0
15:00 11.6 61.2 1033.0 2.6 ENE 6.0 ENE 0.0 229.6
15:05 11.6 62.3 1033.0 2.8 ENE 7.4 NE 0.0 217.1
15:10 11.5 63.6 1033.0 5.5 ENE 9.2 ENE 0.0 206.4
15:15 11.4 65.6 1033.0 5.7 ENE 11.6 ENE 0.0 195.7
15:20 11.2 66.9 1033.0 4.5 ENE 9.5 ENE 0.0 184.1
15:25 11.1 67.9 1033.0 4.4 ENE 7.1 ENE 0.0 171.4
15:30 11.0 68.4 1033.0 5.6 ENE 8.8 ENE 0.0 159.6
15:35 10.8 69.4 1033.0 6.1 ENE 9.9 ENE 0.0 147.9
15:40 10.7 70.3 1033.0 4.1 ENE 8.8 ENE 0.0 132.6
15:45 10.4 71.1 1033.0 5.4 ENE 9.2 ENE 0.0 44.2
15:50 9.9 71.5 1033.0 1.3 ENE 7.4 ENE 0.0 30.4
15:55 8.8 70.7 1033.0 1.3 SSW 3.9 SSW 0.0 26.6
16:00 8.2 71.7 1033.0 4.8 SW 6.7 SW 0.0 24.1
Máxima 12.4 95.2 1035.0 12.6 SSW 18.0 NE 0.1 483.4
Mínima -1.1 55.8 1033.0
Total 0.1